sensor_id;sensor_type;location;lat;lon;timestamp;P1;durP1;ratioP1;P2;durP2;ratioP2
79454;SDS011;68900;52.134;5.420;2023-06-22T00:01:44;9.93;;;4.70;;
79454;SDS011;68900;52.134;5.420;2023-06-22T00:04:16;7.72;;;4.28;;
79454;SDS011;68900;52.134;5.420;2023-06-22T00:06:44;9.50;;;4.30;;
79454;SDS011;68900;52.134;5.420;2023-06-22T00:09:44;12.68;;;4.75;;
79454;SDS011;68900;52.134;5.420;2023-06-22T00:12:13;9.60;;;4.55;;
79454;SDS011;68900;52.134;5.420;2023-06-22T00:17:50;9.68;;;4.93;;
79454;SDS011;68900;52.134;5.420;2023-06-22T00:20:17;8.70;;;4.57;;
79454;SDS011;68900;52.134;5.420;2023-06-22T00:23:13;9.40;;;4.47;;
79454;SDS011;68900;52.134;5.420;2023-06-22T00:25:57;10.18;;;4.85;;
79454;SDS011;68900;52.134;5.420;2023-06-22T00:28:24;9.88;;;4.13;;
79454;SDS011;68900;52.134;5.420;2023-06-22T00:30:52;8.88;;;4.65;;
79454;SDS011;68900;52.134;5.420;2023-06-22T00:33:34;7.60;;;4.15;;
79454;SDS011;68900;52.134;5.420;2023-06-22T00:36:05;8.25;;;4.40;;
79454;SDS011;68900;52.134;5.420;2023-06-22T00:38:52;9.80;;;4.82;;
79454;SDS011;68900;52.134;5.420;2023-06-22T00:41:23;9.98;;;5.18;;
79454;SDS011;68900;52.134;5.420;2023-06-22T00:43:51;9.38;;;4.72;;
79454;SDS011;68900;52.134;5.420;2023-06-22T00:46:24;9.07;;;4.72;;
79454;SDS011;68900;52.134;5.420;2023-06-22T00:51:47;9.00;;;4.70;;
79454;SDS011;68900;52.134;5.420;2023-06-22T00:54:24;8.77;;;4.53;;
79454;SDS011;68900;52.134;5.420;2023-06-22T00:57:10;9.43;;;5.07;;
79454;SDS011;68900;52.134;5.420;2023-06-22T00:59:48;8.80;;;4.82;;
79454;SDS011;68900;52.134;5.420;2023-06-22T01:02:31;10.88;;;4.90;;
79454;SDS011;68900;52.134;5.420;2023-06-22T01:05:13;8.90;;;4.93;;
79454;SDS011;68900;52.134;5.420;2023-06-22T01:10:50;9.13;;;4.50;;
79454;SDS011;68900;52.134;5.420;2023-06-22T01:19:56;8.73;;;4.68;;
79454;SDS011;68900;52.134;5.420;2023-06-22T01:28:55;9.73;;;4.82;;
79454;SDS011;68900;52.134;5.420;2023-06-22T01:31:37;8.93;;;4.80;;
79454;SDS011;68900;52.134;5.420;2023-06-22T01:34:10;10.45;;;5.50;;
79454;SDS011;68900;52.134;5.420;2023-06-22T01:37:01;9.27;;;4.93;;
79454;SDS011;68900;52.134;5.420;2023-06-22T01:39:54;10.65;;;5.50;;
79454;SDS011;68900;52.134;5.420;2023-06-22T01:42:32;10.98;;;4.78;;
79454;SDS011;68900;52.134;5.420;2023-06-22T01:45:20;9.52;;;4.90;;
79454;SDS011;68900;52.134;5.420;2023-06-22T01:48:05;10.77;;;5.45;;
79454;SDS011;68900;52.134;5.420;2023-06-22T01:50:53;9.45;;;5.22;;
79454;SDS011;68900;52.134;5.420;2023-06-22T01:53:22;11.10;;;5.03;;
79454;SDS011;68900;52.134;5.420;2023-06-22T01:56:04;8.70;;;5.32;;
79454;SDS011;68900;52.134;5.420;2023-06-22T02:01:54;9.93;;;5.18;;
79454;SDS011;68900;52.134;5.420;2023-06-22T02:04:55;9.25;;;5.15;;
79454;SDS011;68900;52.134;5.420;2023-06-22T02:13:38;9.35;;;4.93;;
79454;SDS011;68900;52.134;5.420;2023-06-22T02:16:11;8.57;;;4.55;;
79454;SDS011;68900;52.134;5.420;2023-06-22T02:19:02;10.52;;;5.05;;
79454;SDS011;68900;52.134;5.420;2023-06-22T02:21:53;9.90;;;5.60;;
79454;SDS011;68900;52.134;5.420;2023-06-22T02:24:45;9.38;;;5.15;;
79454;SDS011;68900;52.134;5.420;2023-06-22T02:30:31;11.65;;;5.03;;
79454;SDS011;68900;52.134;5.420;2023-06-22T02:33:20;9.70;;;5.10;;
79454;SDS011;68900;52.134;5.420;2023-06-22T02:35:57;9.43;;;5.15;;
79454;SDS011;68900;52.134;5.420;2023-06-22T02:38:40;10.98;;;5.13;;
79454;SDS011;68900;52.134;5.420;2023-06-22T02:41:29;8.30;;;4.90;;
79454;SDS011;68900;52.134;5.420;2023-06-22T02:44:19;10.35;;;5.03;;
79454;SDS011;68900;52.134;5.420;2023-06-22T02:46:47;10.40;;;5.03;;
79454;SDS011;68900;52.134;5.420;2023-06-22T02:55:40;13.10;;;5.30;;
79454;SDS011;68900;52.134;5.420;2023-06-22T02:58:18;10.80;;;5.07;;
79454;SDS011;68900;52.134;5.420;2023-06-22T03:01:02;8.50;;;5.13;;
79454;SDS011;68900;52.134;5.420;2023-06-22T03:03:34;10.15;;;5.35;;
79454;SDS011;68900;52.134;5.420;2023-06-22T03:06:10;9.90;;;5.20;;
79454;SDS011;68900;52.134;5.420;2023-06-22T03:09:06;9.65;;;5.47;;
79454;SDS011;68900;52.134;5.420;2023-06-22T03:12:14;9.20;;;5.13;;
79454;SDS011;68900;52.134;5.420;2023-06-22T03:18:53;10.25;;;5.30;;
79454;SDS011;68900;52.134;5.420;2023-06-22T03:27:47;10.70;;;5.63;;
79454;SDS011;68900;52.134;5.420;2023-06-22T03:33:26;11.02;;;5.43;;
79454;SDS011;68900;52.134;5.420;2023-06-22T03:36:24;9.23;;;5.13;;
79454;SDS011;68900;52.134;5.420;2023-06-22T03:38:52;9.73;;;5.40;;
79454;SDS011;68900;52.134;5.420;2023-06-22T03:41:18;12.80;;;6.05;;
79454;SDS011;68900;52.134;5.420;2023-06-22T03:43:59;9.35;;;5.63;;
79454;SDS011;68900;52.134;5.420;2023-06-22T03:46:28;11.63;;;5.70;;
79454;SDS011;68900;52.134;5.420;2023-06-22T03:49:10;9.88;;;5.03;;
79454;SDS011;68900;52.134;5.420;2023-06-22T03:52:00;9.98;;;5.50;;
79454;SDS011;68900;52.134;5.420;2023-06-22T03:54:30;9.70;;;5.07;;
79454;SDS011;68900;52.134;5.420;2023-06-22T03:57:11;11.63;;;6.32;;
79454;SDS011;68900;52.134;5.420;2023-06-22T03:59:46;9.93;;;4.93;;
79454;SDS011;68900;52.134;5.420;2023-06-22T04:11:56;9.25;;;5.45;;
79454;SDS011;68900;52.134;5.420;2023-06-22T04:14:29;12.77;;;5.95;;
79454;SDS011;68900;52.134;5.420;2023-06-22T04:17:28;11.80;;;5.75;;
79454;SDS011;68900;52.134;5.420;2023-06-22T04:19:56;11.68;;;6.28;;
79454;SDS011;68900;52.134;5.420;2023-06-22T04:22:23;9.93;;;6.00;;
79454;SDS011;68900;52.134;5.420;2023-06-22T04:25:02;12.70;;;6.03;;
79454;SDS011;68900;52.134;5.420;2023-06-22T04:27:29;13.23;;;7.22;;
79454;SDS011;68900;52.134;5.420;2023-06-22T04:30:12;11.02;;;6.30;;
79454;SDS011;68900;52.134;5.420;2023-06-22T04:33:25;11.43;;;6.82;;
79454;SDS011;68900;52.134;5.420;2023-06-22T04:35:55;13.57;;;7.57;;
79454;SDS011;68900;52.134;5.420;2023-06-22T04:38:25;14.45;;;8.27;;
79454;SDS011;68900;52.134;5.420;2023-06-22T04:41:00;14.05;;;8.30;;
79454;SDS011;68900;52.134;5.420;2023-06-22T04:43:37;15.73;;;8.10;;
79454;SDS011;68900;52.134;5.420;2023-06-22T04:46:08;15.68;;;7.95;;
79454;SDS011;68900;52.134;5.420;2023-06-22T04:48:55;15.07;;;8.05;;
79454;SDS011;68900;52.134;5.420;2023-06-22T04:51:27;15.68;;;7.95;;
79454;SDS011;68900;52.134;5.420;2023-06-22T04:58:10;14.50;;;8.40;;
79454;SDS011;68900;52.134;5.420;2023-06-22T05:01:04;21.98;;;9.90;;
79454;SDS011;68900;52.134;5.420;2023-06-22T05:04:21;22.15;;;10.88;;
79454;SDS011;68900;52.134;5.420;2023-06-22T05:07:09;16.67;;;9.93;;
79454;SDS011;68900;52.134;5.420;2023-06-22T05:26:32;18.98;;;10.07;;
79454;SDS011;68900;52.134;5.420;2023-06-22T05:29:13;19.92;;;9.20;;
79454;SDS011;68900;52.134;5.420;2023-06-22T05:32:14;20.52;;;12.18;;
79454;SDS011;68900;52.134;5.420;2023-06-22T05:38:56;22.02;;;12.63;;
79454;SDS011;68900;52.134;5.420;2023-06-22T05:41:46;26.05;;;14.50;;
79454;SDS011;68900;52.134;5.420;2023-06-22T05:47:27;24.30;;;13.88;;
79454;SDS011;68900;52.134;5.420;2023-06-22T05:49:54;22.02;;;12.65;;
79454;SDS011;68900;52.134;5.420;2023-06-22T05:56:19;25.02;;;13.90;;
79454;SDS011;68900;52.134;5.420;2023-06-22T05:58:53;27.20;;;14.80;;
79454;SDS011;68900;52.134;5.420;2023-06-22T06:01:23;24.83;;;14.68;;
79454;SDS011;68900;52.134;5.420;2023-06-22T06:04:10;28.40;;;15.95;;
79454;SDS011;68900;52.134;5.420;2023-06-22T06:06:41;22.75;;;14.85;;
79454;SDS011;68900;52.134;5.420;2023-06-22T06:09:44;24.92;;;15.25;;
79454;SDS011;68900;52.134;5.420;2023-06-22T06:12:15;25.35;;;14.80;;
79454;SDS011;68900;52.134;5.420;2023-06-22T06:14:44;23.85;;;14.77;;
79454;SDS011;68900;52.134;5.420;2023-06-22T06:17:20;22.90;;;14.90;;
79454;SDS011;68900;52.134;5.420;2023-06-22T06:19:47;23.35;;;14.18;;
79454;SDS011;68900;52.134;5.420;2023-06-22T06:22:59;25.02;;;15.48;;
79454;SDS011;68900;52.134;5.420;2023-06-22T06:25:28;25.70;;;15.05;;
79454;SDS011;68900;52.134;5.420;2023-06-22T06:27:55;24.20;;;14.60;;
79454;SDS011;68900;52.134;5.420;2023-06-22T06:31:02;23.00;;;13.20;;
79454;SDS011;68900;52.134;5.420;2023-06-22T06:33:35;21.52;;;13.93;;
79454;SDS011;68900;52.134;5.420;2023-06-22T06:36:09;24.05;;;14.38;;
79454;SDS011;68900;52.134;5.420;2023-06-22T06:41:19;26.05;;;15.05;;
79454;SDS011;68900;52.134;5.420;2023-06-22T06:44:14;26.02;;;14.73;;
79454;SDS011;68900;52.134;5.420;2023-06-22T06:46:48;23.23;;;13.77;;
79454;SDS011;68900;52.134;5.420;2023-06-22T06:49:31;24.15;;;14.18;;
79454;SDS011;68900;52.134;5.420;2023-06-22T06:52:33;22.60;;;14.65;;
79454;SDS011;68900;52.134;5.420;2023-06-22T06:55:35;23.45;;;14.30;;
79454;SDS011;68900;52.134;5.420;2023-06-22T07:39:52;20.88;;;11.13;;
79454;SDS011;68900;52.134;5.420;2023-06-22T07:46:26;15.90;;;9.85;;
79454;SDS011;68900;52.134;5.420;2023-06-22T07:49:32;17.77;;;10.07;;
79454;SDS011;68900;52.134;5.420;2023-06-22T07:52:14;18.27;;;10.23;;
79454;SDS011;68900;52.134;5.420;2023-06-22T07:55:08;19.15;;;9.88;;
79454;SDS011;68900;52.134;5.420;2023-06-22T07:57:54;14.77;;;9.25;;
79454;SDS011;68900;52.134;5.420;2023-06-22T08:00:28;16.35;;;9.52;;
79454;SDS011;68900;52.134;5.420;2023-06-22T08:03:37;14.57;;;8.90;;
79454;SDS011;68900;52.134;5.420;2023-06-22T08:06:17;16.30;;;9.98;;
79454;SDS011;68900;52.134;5.420;2023-06-22T08:09:06;14.50;;;9.13;;
79454;SDS011;68900;52.134;5.420;2023-06-22T08:19:19;13.60;;;8.68;;
79454;SDS011;68900;52.134;5.420;2023-06-22T08:24:39;13.27;;;7.85;;
79454;SDS011;68900;52.134;5.420;2023-06-22T08:27:38;18.70;;;7.78;;
79454;SDS011;68900;52.134;5.420;2023-06-22T08:30:24;13.13;;;7.93;;
79454;SDS011;68900;52.134;5.420;2023-06-22T08:33:10;15.55;;;8.95;;
79454;SDS011;68900;52.134;5.420;2023-06-22T08:35:48;13.38;;;7.45;;
79454;SDS011;68900;52.134;5.420;2023-06-22T08:38:24;12.90;;;7.07;;
79454;SDS011;68900;52.134;5.420;2023-06-22T08:41:09;13.30;;;6.85;;
79454;SDS011;68900;52.134;5.420;2023-06-22T08:43:40;14.90;;;7.40;;
79454;SDS011;68900;52.134;5.420;2023-06-22T08:49:51;9.80;;;5.53;;
79454;SDS011;68900;52.134;5.420;2023-06-22T08:52:23;13.73;;;6.80;;
79454;SDS011;68900;52.134;5.420;2023-06-22T09:19:30;9.65;;;4.55;;
79454;SDS011;68900;52.134;5.420;2023-06-22T09:25:51;9.32;;;4.60;;
79454;SDS011;68900;52.134;5.420;2023-06-22T11:36:20;14.40;;;5.50;;
79454;SDS011;68900;52.134;5.420;2023-06-22T11:39:08;15.32;;;6.18;;
79454;SDS011;68900;52.134;5.420;2023-06-22T11:51:32;12.05;;;7.13;;
79454;SDS011;68900;52.134;5.420;2023-06-22T12:54:21;9.35;;;6.40;;
79454;SDS011;68900;52.134;5.420;2023-06-22T14:13:27;11.48;;;7.53;;
79454;SDS011;68900;52.134;5.420;2023-06-22T14:19:32;12.30;;;7.28;;
79454;SDS011;68900;52.134;5.420;2023-06-22T15:06:54;15.32;;;8.82;;
79454;SDS011;68900;52.134;5.420;2023-06-22T15:10:04;14.02;;;8.68;;
79454;SDS011;68900;52.134;5.420;2023-06-22T15:12:34;17.27;;;8.70;;
79454;SDS011;68900;52.134;5.420;2023-06-22T15:15:08;14.27;;;8.63;;
79454;SDS011;68900;52.134;5.420;2023-06-22T15:18:02;12.50;;;8.15;;
79454;SDS011;68900;52.134;5.420;2023-06-22T15:20:34;12.23;;;8.52;;
79454;SDS011;68900;52.134;5.420;2023-06-22T15:23:19;13.95;;;8.10;;
79454;SDS011;68900;52.134;5.420;2023-06-22T15:25:50;18.00;;;8.63;;
79454;SDS011;68900;52.134;5.420;2023-06-22T15:28:27;16.98;;;9.20;;
79454;SDS011;68900;52.134;5.420;2023-06-22T15:31:35;13.48;;;9.15;;
79454;SDS011;68900;52.134;5.420;2023-06-22T15:34:25;14.52;;;9.27;;
79454;SDS011;68900;52.134;5.420;2023-06-22T15:40:34;17.67;;;9.68;;
79454;SDS011;68900;52.134;5.420;2023-06-22T15:47:23;13.98;;;8.02;;
79454;SDS011;68900;52.134;5.420;2023-06-22T16:25:18;19.90;;;11.15;;
79454;SDS011;68900;52.134;5.420;2023-06-22T16:31:33;17.42;;;12.02;;
79454;SDS011;68900;52.134;5.420;2023-06-22T16:34:00;17.75;;;10.45;;
79454;SDS011;68900;52.134;5.420;2023-06-22T16:36:35;16.73;;;9.10;;
79454;SDS011;68900;52.134;5.420;2023-06-22T16:39:02;15.45;;;9.45;;
79454;SDS011;68900;52.134;5.420;2023-06-22T16:41:30;14.80;;;9.63;;
79454;SDS011;68900;52.134;5.420;2023-06-22T16:43:59;15.13;;;9.52;;
79454;SDS011;68900;52.134;5.420;2023-06-22T16:46:37;16.50;;;9.60;;
79454;SDS011;68900;52.134;5.420;2023-06-22T16:49:07;15.88;;;9.32;;
79454;SDS011;68900;52.134;5.420;2023-06-22T16:52:18;13.15;;;8.77;;
79454;SDS011;68900;52.134;5.420;2023-06-22T16:54:46;14.93;;;8.80;;
79454;SDS011;68900;52.134;5.420;2023-06-22T16:57:26;13.35;;;8.07;;
79454;SDS011;68900;52.134;5.420;2023-06-22T16:59:53;13.00;;;7.80;;
79454;SDS011;68900;52.134;5.420;2023-06-22T17:52:34;16.73;;;10.88;;
79454;SDS011;68900;52.134;5.420;2023-06-22T17:55:04;17.33;;;10.10;;
79454;SDS011;68900;52.134;5.420;2023-06-22T17:57:39;16.80;;;10.48;;
79454;SDS011;68900;52.134;5.420;2023-06-22T18:00:25;16.27;;;10.85;;
79454;SDS011;68900;52.134;5.420;2023-06-22T18:03:04;16.13;;;10.82;;
79454;SDS011;68900;52.134;5.420;2023-06-22T18:05:34;18.95;;;12.38;;
79454;SDS011;68900;52.134;5.420;2023-06-22T18:08:04;17.20;;;11.15;;
79454;SDS011;68900;52.134;5.420;2023-06-22T18:10:32;15.77;;;11.40;;
79454;SDS011;68900;52.134;5.420;2023-06-22T18:13:01;21.30;;;11.35;;
79454;SDS011;68900;52.134;5.420;2023-06-22T18:15:29;16.80;;;11.13;;
79454;SDS011;68900;52.134;5.420;2023-06-22T18:17:58;18.92;;;11.73;;
79454;SDS011;68900;52.134;5.420;2023-06-22T18:20:25;16.70;;;11.00;;
79454;SDS011;68900;52.134;5.420;2023-06-22T18:22:53;19.70;;;11.38;;
79454;SDS011;68900;52.134;5.420;2023-06-22T18:25:20;17.50;;;10.48;;
79454;SDS011;68900;52.134;5.420;2023-06-22T18:27:46;17.55;;;10.75;;
79454;SDS011;68900;52.134;5.420;2023-06-22T18:30:15;17.05;;;10.00;;
79454;SDS011;68900;52.134;5.420;2023-06-22T18:32:42;15.15;;;8.95;;
79454;SDS011;68900;52.134;5.420;2023-06-22T18:35:09;13.98;;;8.63;;
79454;SDS011;68900;52.134;5.420;2023-06-22T18:37:38;15.70;;;9.55;;
79454;SDS011;68900;52.134;5.420;2023-06-22T18:40:07;13.38;;;8.82;;
79454;SDS011;68900;52.134;5.420;2023-06-22T18:42:45;13.30;;;7.68;;
79454;SDS011;68900;52.134;5.420;2023-06-22T18:45:28;12.65;;;7.88;;
79454;SDS011;68900;52.134;5.420;2023-06-22T18:48:01;14.32;;;6.95;;
79454;SDS011;68900;52.134;5.420;2023-06-22T18:50:40;11.50;;;7.03;;
79454;SDS011;68900;52.134;5.420;2023-06-22T18:56:18;12.95;;;6.97;;
79454;SDS011;68900;52.134;5.420;2023-06-22T18:58:55;12.43;;;6.97;;
79454;SDS011;68900;52.134;5.420;2023-06-22T19:01:22;12.45;;;6.88;;
79454;SDS011;68900;52.134;5.420;2023-06-22T19:04:14;11.63;;;7.43;;
79454;SDS011;68900;52.134;5.420;2023-06-22T19:06:58;13.80;;;7.05;;
79454;SDS011;68900;52.134;5.420;2023-06-22T19:09:29;12.60;;;6.88;;
79454;SDS011;68900;52.134;5.420;2023-06-22T19:12:15;11.15;;;6.43;;
79454;SDS011;68900;52.134;5.420;2023-06-22T19:17:32;12.02;;;6.75;;
79454;SDS011;68900;52.134;5.420;2023-06-22T19:20:02;11.68;;;6.93;;
79454;SDS011;68900;52.134;5.420;2023-06-22T19:22:55;12.77;;;6.65;;
79454;SDS011;68900;52.134;5.420;2023-06-22T19:25:27;11.55;;;6.20;;
79454;SDS011;68900;52.134;5.420;2023-06-22T19:27:57;11.13;;;6.70;;
79454;SDS011;68900;52.134;5.420;2023-06-22T19:30:41;10.45;;;5.72;;
79454;SDS011;68900;52.134;5.420;2023-06-22T19:33:11;10.98;;;5.53;;
79454;SDS011;68900;52.134;5.420;2023-06-22T19:35:55;9.25;;;5.40;;
79454;SDS011;68900;52.134;5.420;2023-06-22T19:38:45;14.57;;;5.40;;
79454;SDS011;68900;52.134;5.420;2023-06-22T19:41:12;8.77;;;4.75;;
79454;SDS011;68900;52.134;5.420;2023-06-22T19:43:39;8.45;;;4.97;;
79454;SDS011;68900;52.134;5.420;2023-06-22T19:46:36;6.95;;;3.83;;
79454;SDS011;68900;52.134;5.420;2023-06-22T19:49:07;8.40;;;3.10;;
79454;SDS011;68900;52.134;5.420;2023-06-22T19:51:34;7.35;;;3.25;;
79454;SDS011;68900;52.134;5.420;2023-06-22T19:54:17;6.93;;;2.88;;
79454;SDS011;68900;52.134;5.420;2023-06-22T19:59:54;5.13;;;1.92;;
79454;SDS011;68900;52.134;5.420;2023-06-22T20:02:24;6.30;;;2.40;;
79454;SDS011;68900;52.134;5.420;2023-06-22T20:05:14;6.25;;;3.03;;
79454;SDS011;68900;52.134;5.420;2023-06-22T20:08:04;6.05;;;2.10;;
79454;SDS011;68900;52.134;5.420;2023-06-22T20:10:49;6.50;;;2.28;;
79454;SDS011;68900;52.134;5.420;2023-06-22T20:13:31;5.30;;;2.30;;
79454;SDS011;68900;52.134;5.420;2023-06-22T20:16:20;6.22;;;1.83;;
79454;SDS011;68900;52.134;5.420;2023-06-22T20:19:10;3.88;;;1.63;;
79454;SDS011;68900;52.134;5.420;2023-06-22T20:22:02;3.88;;;1.60;;
79454;SDS011;68900;52.134;5.420;2023-06-22T20:24:30;5.38;;;2.30;;
79454;SDS011;68900;52.134;5.420;2023-06-22T20:27:15;7.15;;;2.30;;
79454;SDS011;68900;52.134;5.420;2023-06-22T20:29:55;5.82;;;2.63;;
79454;SDS011;68900;52.134;5.420;2023-06-22T20:32:27;6.03;;;2.30;;
79454;SDS011;68900;52.134;5.420;2023-06-22T20:35:02;5.88;;;2.10;;
79454;SDS011;68900;52.134;5.420;2023-06-22T20:37:50;5.43;;;2.10;;
79454;SDS011;68900;52.134;5.420;2023-06-22T20:43:43;5.65;;;2.88;;
79454;SDS011;68900;52.134;5.420;2023-06-22T20:46:56;6.88;;;3.15;;
79454;SDS011;68900;52.134;5.420;2023-06-22T20:49:25;6.95;;;3.15;;
79454;SDS011;68900;52.134;5.420;2023-06-22T20:52:09;8.00;;;3.58;;
79454;SDS011;68900;52.134;5.420;2023-06-22T20:54:44;7.43;;;3.20;;
79454;SDS011;68900;52.134;5.420;2023-06-22T20:57:17;6.60;;;3.35;;
79454;SDS011;68900;52.134;5.420;2023-06-22T20:59:44;7.28;;;3.17;;
79454;SDS011;68900;52.134;5.420;2023-06-22T21:02:30;8.50;;;3.25;;
79454;SDS011;68900;52.134;5.420;2023-06-22T21:05:00;7.38;;;3.50;;
79454;SDS011;68900;52.134;5.420;2023-06-22T21:07:45;6.80;;;3.50;;
79454;SDS011;68900;52.134;5.420;2023-06-22T21:10:14;6.90;;;3.55;;
79454;SDS011;68900;52.134;5.420;2023-06-22T21:13:02;8.85;;;3.35;;
79454;SDS011;68900;52.134;5.420;2023-06-22T21:19:25;9.88;;;3.47;;
79454;SDS011;68900;52.134;5.420;2023-06-22T21:28:38;6.38;;;3.05;;
79454;SDS011;68900;52.134;5.420;2023-06-22T21:31:32;7.32;;;3.20;;
79454;SDS011;68900;52.134;5.420;2023-06-22T21:33:59;8.13;;;3.40;;
79454;SDS011;68900;52.134;5.420;2023-06-22T21:36:31;8.13;;;3.72;;
79454;SDS011;68900;52.134;5.420;2023-06-22T21:38:58;7.00;;;3.33;;
79454;SDS011;68900;52.134;5.420;2023-06-22T21:41:34;9.00;;;3.53;;
79454;SDS011;68900;52.134;5.420;2023-06-22T21:44:00;7.40;;;3.75;;
79454;SDS011;68900;52.134;5.420;2023-06-22T21:46:30;9.27;;;4.00;;
79454;SDS011;68900;52.134;5.420;2023-06-22T21:48:57;7.88;;;3.50;;
79454;SDS011;68900;52.134;5.420;2023-06-22T21:51:23;8.18;;;3.05;;
79454;SDS011;68900;52.134;5.420;2023-06-22T21:53:50;6.78;;;3.22;;
79454;SDS011;68900;52.134;5.420;2023-06-22T21:56:32;7.65;;;3.50;;
79454;SDS011;68900;52.134;5.420;2023-06-22T21:58:59;9.70;;;3.67;;
79454;SDS011;68900;52.134;5.420;2023-06-22T22:01:38;7.82;;;3.38;;
79454;SDS011;68900;52.134;5.420;2023-06-22T22:04:05;7.45;;;3.58;;
79454;SDS011;68900;52.134;5.420;2023-06-22T22:06:33;8.25;;;4.10;;
79454;SDS011;68900;52.134;5.420;2023-06-22T22:09:00;9.77;;;3.35;;
79454;SDS011;68900;52.134;5.420;2023-06-22T22:11:35;8.90;;;3.80;;
79454;SDS011;68900;52.134;5.420;2023-06-22T22:14:01;8.90;;;3.88;;
79454;SDS011;68900;52.134;5.420;2023-06-22T22:16:28;7.55;;;3.53;;
79454;SDS011;68900;52.134;5.420;2023-06-22T22:19:09;7.32;;;3.75;;
79454;SDS011;68900;52.134;5.420;2023-06-22T22:21:41;7.55;;;3.65;;
79454;SDS011;68900;52.134;5.420;2023-06-22T22:24:08;8.00;;;3.85;;
79454;SDS011;68900;52.134;5.420;2023-06-22T22:26:35;9.80;;;3.80;;
79454;SDS011;68900;52.134;5.420;2023-06-22T22:29:03;7.63;;;4.00;;
79454;SDS011;68900;52.134;5.420;2023-06-22T22:31:32;7.57;;;3.55;;
79454;SDS011;68900;52.134;5.420;2023-06-22T22:34:04;7.45;;;3.45;;
79454;SDS011;68900;52.134;5.420;2023-06-22T22:36:32;6.30;;;3.83;;
79454;SDS011;68900;52.134;5.420;2023-06-22T22:38:59;7.60;;;4.38;;
79454;SDS011;68900;52.134;5.420;2023-06-22T22:41:26;9.50;;;3.70;;
79454;SDS011;68900;52.134;5.420;2023-06-22T22:44:05;7.22;;;4.00;;
79454;SDS011;68900;52.134;5.420;2023-06-22T22:46:32;7.70;;;3.95;;
79454;SDS011;68900;52.134;5.420;2023-06-22T22:49:03;7.20;;;3.92;;
79454;SDS011;68900;52.134;5.420;2023-06-22T22:51:31;8.95;;;4.18;;
79454;SDS011;68900;52.134;5.420;2023-06-22T22:54:00;7.25;;;3.72;;
79454;SDS011;68900;52.134;5.420;2023-06-22T22:56:26;11.43;;;4.15;;
79454;SDS011;68900;52.134;5.420;2023-06-22T22:59:02;7.57;;;3.90;;
79454;SDS011;68900;52.134;5.420;2023-06-22T23:01:29;9.27;;;3.90;;
79454;SDS011;68900;52.134;5.420;2023-06-22T23:03:55;8.88;;;3.72;;
79454;SDS011;68900;52.134;5.420;2023-06-22T23:06:22;7.10;;;3.30;;
79454;SDS011;68900;52.134;5.420;2023-06-22T23:08:50;8.95;;;3.72;;
79454;SDS011;68900;52.134;5.420;2023-06-22T23:11:22;9.82;;;3.70;;
79454;SDS011;68900;52.134;5.420;2023-06-22T23:13:53;8.43;;;3.45;;
79454;SDS011;68900;52.134;5.420;2023-06-22T23:16:25;7.75;;;3.60;;
79454;SDS011;68900;52.134;5.420;2023-06-22T23:18:52;7.93;;;3.70;;
79454;SDS011;68900;52.134;5.420;2023-06-22T23:21:19;8.68;;;3.60;;
79454;SDS011;68900;52.134;5.420;2023-06-22T23:23:45;9.00;;;3.78;;
79454;SDS011;68900;52.134;5.420;2023-06-22T23:26:12;8.10;;;3.50;;
79454;SDS011;68900;52.134;5.420;2023-06-22T23:28:41;8.38;;;3.58;;
79454;SDS011;68900;52.134;5.420;2023-06-22T23:31:08;8.82;;;3.42;;
79454;SDS011;68900;52.134;5.420;2023-06-22T23:33:35;7.70;;;3.38;;
79454;SDS011;68900;52.134;5.420;2023-06-22T23:36:06;9.65;;;3.60;;
79454;SDS011;68900;52.134;5.420;2023-06-22T23:38:32;6.93;;;3.60;;
79454;SDS011;68900;52.134;5.420;2023-06-22T23:40:59;6.70;;;3.03;;
79454;SDS011;68900;52.134;5.420;2023-06-22T23:43:27;6.25;;;2.45;;
79454;SDS011;68900;52.134;5.420;2023-06-22T23:45:58;6.47;;;2.88;;
79454;SDS011;68900;52.134;5.420;2023-06-22T23:48:37;6.35;;;2.67;;
79454;SDS011;68900;52.134;5.420;2023-06-22T23:51:04;6.43;;;3.20;;
79454;SDS011;68900;52.134;5.420;2023-06-22T23:53:31;7.15;;;2.88;;
79454;SDS011;68900;52.134;5.420;2023-06-22T23:55:58;6.32;;;3.20;;
79454;SDS011;68900;52.134;5.420;2023-06-22T23:58:38;6.57;;;3.40;;
